KDRA/DRA METAR and TAF weather

Enter ICAO airport designator
Station Type Date Time Source
KDRA METAR 2019/12/11 11:53 UTC NOAA

KDRA 111153Z AUTO 11005KT 10SM CLR 03/00 A3018 RMK AO2 SLP211 T00330000 10056 20022 58006


Station Type Date Time Source
KDRA Decoded METAR 2019/12/11 11:53 UTC NOAA

DESERT ROCK AIRPORT, NV, United States (KDRA) 36-38N 116-02W 1006M
Dec 11, 2019 - 06:53 AM EST / 2019.12.11 1153 UTC
Wind: from the ESE (110 degrees) at 6 MPH (5 KT):0
Visibility: 10 mile(s):0
Sky conditions: clear
Temperature: 37.9 F (3.3 C)
Dew Point: 32.0 F (0.0 C)
Relative Humidity: 78%
Pressure (altimeter): 30.18 in. Hg (1022 hPa)
Pressure tendency: 0.02 inches (0.6 hPa) lower than three hours ago
ob: KDRA 111153Z AUTO 11005KT 10SM CLR 03/00 A3018 RMK AO2 SLP211 T00330000 10056 20022 58006
cycle: 12

Station Type Date Time Source
KDRA TAF 2011/12/07 06:36 UTC NOAA

TAF KDRA 070532Z 0706/0806 VRB04KT P6SM SKC

Example: see airport list